Terminal Aerodrome Forecast
Issued by NWS Charleston, WV

Current Version | Previous Version | Text Only | Print | Product List | Glossary On
Versions: 1 2 3 4 5 6 7 8 9 10 11 12 13 14 15 16 17 18 19 20 21 22 23 24 25 26 27 28 29 30 31 32 33 34 35 36 37 38 39
000
FTUS41 KRLX 301720
TAFHTS
TAF
KHTS 301720Z 3018/3118 25004KT P6SM VCTS BKN035CB
     FM310000 VRB03KT P6SM BKN040
     FM310500 VRB02KT 4SM BR BKN050
     FM310900 VRB02KT 1SM BR BKN001
     FM311200 VRB02KT 3SM BR OVC035
     FM311300 VRB03KT P6SM BKN040=

USA.gov is the U.S. government's official web portal to all federal, state and local government web resources and services.